createdAt,value
2024-04-10T00:00:16.656Z,60.270922
2024-04-10T00:05:17.083Z,59.646853
2024-04-10T00:10:17.122Z,59.559722
2024-04-10T00:15:17.272Z,59.744056
2024-04-10T00:20:16.209Z,60.090909
2024-04-10T00:25:17.211Z,58.872028
2024-04-10T00:30:16.482Z,57.789510
2024-04-10T00:35:17.869Z,58.506294
2024-04-10T00:40:16.320Z,58.283803
2024-04-10T00:45:16.668Z,58.995775
2024-04-10T00:50:16.414Z,60.255634
2024-04-10T00:55:16.602Z,60.158451
2024-04-10T01:00:16.054Z,60.282394
2024-04-10T01:05:16.590Z,60.872535
2024-04-10T01:10:16.799Z,60.702778
2024-04-10T01:15:16.559Z,60.625874
2024-04-10T01:20:16.276Z,61.009091
2024-04-10T01:25:16.604Z,61.283217
2024-04-10T01:30:16.832Z,61.380986
2024-04-10T01:35:16.708Z,61.142553
2024-04-10T01:40:16.532Z,62.159155
2024-04-10T01:45:17.133Z,62.593662
2024-04-10T01:50:17.024Z,62.904895
2024-04-10T01:55:16.583Z,63.158865
2024-04-10T02:00:16.887Z,64.154167
2024-04-10T02:05:16.673Z,64.805594
2024-04-10T02:10:16.331Z,65.118310
2024-04-10T02:15:16.395Z,64.534507
2024-04-10T02:20:16.725Z,64.004255
2024-04-10T02:25:16.620Z,63.731206
2024-04-10T02:30:17.340Z,62.852482
2024-04-10T02:35:18.915Z,61.244366
2024-04-10T02:40:17.278Z,60.818310
2024-04-10T02:45:16.974Z,60.817606
2024-04-10T02:50:17.347Z,60.132867
2024-04-10T02:55:17.029Z,60.529167
2024-04-10T03:00:17.315Z,63.837671
2024-04-10T03:05:16.845Z,67.904795
2024-04-10T03:10:17.296Z,68.849655
2024-04-10T03:15:16.347Z,65.852083
2024-04-10T03:20:16.737Z,66.109790
2024-04-10T03:25:16.747Z,66.830822
2024-04-10T03:30:16.945Z,67.637241
2024-04-10T03:35:16.380Z,68.431034
2024-04-10T03:40:16.458Z,68.331724
2024-04-10T03:45:17.034Z,68.127083
2024-04-10T03:50:19.167Z,68.108333
2024-04-10T03:55:17.325Z,68.524490
2024-04-10T04:00:17.017Z,68.584932
2024-04-10T04:05:16.733Z,68.591781
2024-04-10T04:10:16.564Z,68.150345
2024-04-10T04:15:17.428Z,67.661806
2024-04-10T04:20:16.438Z,67.372222
2024-04-10T04:25:16.734Z,67.789510
2024-04-10T04:30:16.282Z,67.708392
2024-04-10T04:35:21.311Z,67.931724
2024-04-10T04:40:16.832Z,67.615862
2024-04-10T04:45:16.841Z,66.985315
2024-04-10T04:50:16.697Z,66.963636
2024-04-10T04:55:16.771Z,66.737241
2024-04-10T05:00:16.753Z,67.709790
2024-04-10T05:05:16.425Z,68.050000
2024-04-10T05:10:16.605Z,68.434483
2024-04-10T05:15:17.113Z,68.804196
2024-04-10T05:20:18.531Z,68.988966
2024-04-10T05:25:16.503Z,69.510959
2024-04-10T05:30:17.441Z,68.988112
2024-04-10T05:35:16.799Z,68.795139
2024-04-10T05:40:16.517Z,68.750000
2024-04-10T05:45:17.220Z,68.502098
2024-04-10T05:50:16.694Z,68.063889
2024-04-10T05:55:17.376Z,68.342254
2024-04-10T06:00:16.190Z,68.390972
2024-04-10T06:05:16.155Z,68.341667
2024-04-10T06:10:16.318Z,68.225694
2024-04-10T06:15:16.661Z,68.495833
2024-04-10T06:20:17.275Z,68.195833
2024-04-10T06:25:17.320Z,68.143972
2024-04-10T06:30:16.918Z,67.690345
2024-04-10T06:35:16.614Z,67.294406
2024-04-10T06:40:16.696Z,67.148936
2024-04-10T06:45:17.595Z,67.371631
2024-04-10T06:50:17.231Z,67.753521
2024-04-10T06:55:17.354Z,68.359155
2024-04-10T07:00:16.418Z,69.282143
2024-04-10T07:05:16.672Z,70.407092
2024-04-10T07:10:16.406Z,70.488652
2024-04-10T07:15:17.175Z,70.339007
2024-04-10T07:20:17.252Z,69.967376
2024-04-10T07:25:18.060Z,69.550000
2024-04-10T07:30:17.022Z,69.266197
2024-04-10T07:35:16.269Z,69.315385
2024-04-10T07:40:16.337Z,69.579433
2024-04-10T07:45:17.167Z,70.644681
2024-04-10T07:50:17.015Z,70.814894
2024-04-10T07:55:16.134Z,70.611268
2024-04-10T08:00:17.181Z,69.957042
2024-04-10T08:05:17.096Z,69.546154
2024-04-10T08:10:16.599Z,69.671528
2024-04-10T08:15:17.107Z,70.530070
2024-04-10T08:20:17.409Z,70.986014
2024-04-10T08:25:17.187Z,71.422535
2024-04-10T08:30:16.304Z,71.417606
2024-04-10T08:35:16.667Z,71.302113
2024-04-10T08:40:16.583Z,71.548252
2024-04-10T08:45:18.039Z,72.080282
2024-04-10T08:50:16.844Z,71.967832
2024-04-10T08:55:16.609Z,72.060140
2024-04-10T09:00:16.984Z,71.981379
2024-04-10T09:05:18.308Z,72.065972
2024-04-10T09:10:17.122Z,72.386806
2024-04-10T09:15:16.426Z,72.496552
2024-04-10T09:20:16.896Z,72.431293
2024-04-10T09:25:16.720Z,72.253061
2024-04-10T09:30:16.782Z,72.720408
2024-04-10T09:35:16.747Z,73.856250
2024-04-10T09:40:16.592Z,75.550355
2024-04-10T09:45:16.589Z,76.952518
2024-04-10T09:50:16.438Z,77.266901
2024-04-10T09:55:16.894Z,76.949306
2024-04-10T10:00:16.760Z,76.379310
2024-04-10T10:05:16.504Z,76.127083
2024-04-10T10:10:16.825Z,75.851034
2024-04-10T10:15:16.257Z,76.018056
2024-04-10T10:20:16.482Z,76.580556
2024-04-10T10:25:16.311Z,76.437500
2024-04-10T10:30:16.534Z,76.178082
2024-04-10T10:35:19.744Z,76.051389
2024-04-10T10:40:16.875Z,76.580000
2024-04-10T10:45:16.485Z,77.120979
2024-04-10T10:50:16.634Z,77.950694
2024-04-10T10:55:16.392Z,78.175177
2024-04-10T11:00:16.504Z,79.244526
2024-04-10T11:05:22.030Z,79.569784
2024-04-10T11:10:16.524Z,79.432143
2024-04-10T11:15:17.448Z,79.236620
2024-04-10T11:20:16.656Z,78.997887
2024-04-10T11:25:16.969Z,78.952817
2024-04-10T11:30:22.391Z,78.809929
2024-04-10T11:35:16.297Z,79.270345
2024-04-10T11:40:16.412Z,79.579861
2024-04-10T11:45:16.926Z,79.434965
2024-04-10T11:50:17.238Z,79.933566
2024-04-10T11:55:16.715Z,79.365541
2024-04-10T12:00:17.210Z,79.829932
2024-04-10T12:05:16.782Z,79.830345
2024-04-10T12:10:16.694Z,79.766207
2024-04-10T12:15:16.418Z,80.112766
2024-04-10T12:20:16.931Z,80.917857
2024-04-10T12:25:17.848Z,81.038028
2024-04-10T12:30:16.863Z,80.555245
2024-04-10T12:35:17.074Z,79.605634
2024-04-10T12:40:16.538Z,78.611189
2024-04-10T12:45:16.996Z,78.265035
2024-04-10T12:50:16.859Z,78.107639
2024-04-10T12:55:16.267Z,78.811806
2024-04-10T13:00:16.434Z,79.295833
2024-04-10T13:05:17.718Z,78.768794
2024-04-10T13:10:16.365Z,78.600704
2024-04-10T13:15:17.780Z,78.028369
2024-04-10T13:20:16.871Z,77.803497
2024-04-10T13:25:16.374Z,77.436364
2024-04-10T13:30:17.199Z,77.978322
2024-04-10T13:35:17.112Z,77.672028
2024-04-10T13:40:16.846Z,77.923944
2024-04-10T13:45:17.334Z,78.485106
2024-04-10T13:50:17.079Z,78.489437
2024-04-10T13:55:16.870Z,78.106993
2024-04-10T14:00:16.974Z,78.580986
2024-04-10T14:05:16.350Z,78.634507
2024-04-10T14:10:16.540Z,77.492958
2024-04-10T14:15:17.278Z,76.973050
2024-04-10T14:20:16.568Z,76.768085
2024-04-10T14:25:16.682Z,76.345000
2024-04-10T14:30:16.241Z,75.967832
2024-04-10T14:35:16.593Z,76.587591
2024-04-10T14:40:17.197Z,77.377206
2024-04-10T14:45:16.360Z,77.970000
2024-04-10T14:50:16.275Z,77.551429
2024-04-10T14:55:16.428Z,77.135461
2024-04-10T15:00:16.949Z,76.439568
2024-04-10T15:05:17.550Z,77.150000
2024-04-10T15:10:16.403Z,76.575735
2024-04-10T15:15:16.760Z,76.135766
2024-04-10T15:20:16.852Z,75.660145
2024-04-10T15:25:16.637Z,74.625714
2024-04-10T15:30:17.138Z,73.256429
2024-04-10T15:35:16.341Z,72.637857
2024-04-10T15:40:16.988Z,71.922535
2024-04-10T15:45:16.620Z,71.240288
2024-04-10T15:50:17.183Z,72.660563
2024-04-10T15:55:16.671Z,70.013475
2024-04-10T16:00:16.675Z,67.483803
2024-04-10T16:05:16.513Z,68.029577
2024-04-10T16:10:17.100Z,68.436879
2024-04-10T16:15:16.514Z,69.476596
2024-04-10T16:20:16.635Z,69.841135
2024-04-10T16:25:16.340Z,70.303731
2024-04-10T16:30:17.064Z,71.739706
2024-04-10T16:35:16.477Z,71.901471
2024-04-10T16:40:16.276Z,73.034815
2024-04-10T16:45:16.714Z,73.046377
2024-04-10T16:50:16.806Z,74.530597
2024-04-10T16:55:16.520Z,75.911111
2024-04-10T17:00:17.035Z,76.839259
2024-04-10T17:05:17.118Z,74.903676
2024-04-10T17:10:16.701Z,74.163971
2024-04-10T17:15:16.860Z,73.505072
2024-04-10T17:20:16.829Z,71.974648
2024-04-10T17:25:17.354Z,72.329851
2024-04-10T17:30:17.325Z,72.418116
2024-04-10T17:35:16.556Z,72.248905
2024-04-10T17:40:16.751Z,71.305674
2024-04-10T17:45:17.678Z,71.193571
2024-04-10T17:50:17.746Z,69.945775
2024-04-10T17:55:17.714Z,70.115603
2024-04-10T18:00:16.618Z,68.526761
2024-04-10T18:05:16.592Z,67.875887
2024-04-10T18:10:16.656Z,66.970139
2024-04-10T18:15:16.883Z,66.657534
2024-04-10T18:20:16.465Z,66.840278
2024-04-10T18:25:16.554Z,67.619718
2024-04-10T18:30:16.611Z,66.937324
2024-04-10T18:35:17.160Z,66.079577
2024-04-10T18:40:17.471Z,66.749645
2024-04-10T18:45:18.968Z,66.547183
2024-04-10T18:50:16.918Z,67.537857
2024-04-10T18:55:16.594Z,66.557447
2024-04-10T19:00:16.331Z,65.990845
2024-04-10T19:05:16.833Z,65.421831
2024-04-10T19:10:16.127Z,64.736364
2024-04-10T19:15:16.477Z,63.553846
2024-04-10T19:20:16.739Z,62.579021
2024-04-10T19:25:16.683Z,62.116197
2024-04-10T19:30:17.028Z,63.820280
2024-04-10T19:35:16.773Z,64.098592
2024-04-10T19:40:16.490Z,63.148936
2024-04-10T19:45:17.498Z,63.408392
2024-04-10T19:50:17.054Z,62.807586
2024-04-10T19:55:16.959Z,61.885816
2024-04-10T20:00:16.621Z,60.270629
2024-04-10T20:05:17.055Z,59.563380
2024-04-10T20:10:16.794Z,59.434028
2024-04-10T20:15:16.305Z,58.476027
2024-04-10T20:20:16.564Z,57.740559
2024-04-10T20:25:16.376Z,56.083448
2024-04-10T20:30:16.526Z,56.117361
2024-04-10T20:35:17.354Z,55.701399
2024-04-10T20:40:16.506Z,55.783099
2024-04-10T20:45:16.335Z,54.629371
2024-04-10T20:50:16.333Z,54.161379
2024-04-10T20:55:18.306Z,53.984138
2024-04-10T21:00:16.743Z,53.053425
2024-04-10T21:05:16.435Z,52.513889
2024-04-10T21:10:16.574Z,52.853846
2024-04-10T21:15:16.789Z,53.304861
2024-04-10T21:20:16.439Z,54.476761
2024-04-10T21:25:17.164Z,53.372727
2024-04-10T21:30:16.488Z,53.617606
2024-04-10T21:35:16.433Z,54.000000
2024-04-10T21:40:16.642Z,53.669231
2024-04-10T21:45:16.686Z,54.872727
2024-04-10T21:50:16.295Z,55.210638
2024-04-10T21:55:16.223Z,54.362411
2024-04-10T22:00:37.045Z,53.558156
2024-04-10T22:05:17.513Z,52.295745
2024-04-10T22:10:16.255Z,50.919580
2024-04-10T22:15:16.401Z,49.754930
2024-04-10T22:20:16.796Z,50.192254
2024-04-10T22:25:16.614Z,47.055245
2024-04-10T22:30:16.431Z,49.324648
2024-04-10T22:35:18.491Z,47.666667
2024-04-10T22:40:16.346Z,48.269930
2024-04-10T22:45:16.420Z,50.461972
2024-04-10T22:50:17.139Z,50.476761
2024-04-10T22:55:16.521Z,50.902797
2024-04-10T23:00:16.273Z,49.746154
2024-04-10T23:05:31.367Z,51.705594
2024-04-10T23:10:16.322Z,52.615385
2024-04-10T23:15:17.572Z,51.376056
2024-04-10T23:20:16.899Z,54.769930
2024-04-10T23:25:18.129Z,55.849296
2024-04-10T23:30:16.416Z,56.909929
2024-04-10T23:35:16.358Z,57.087943
2024-04-10T23:40:17.545Z,56.847518
2024-04-10T23:45:16.236Z,57.491549
2024-04-10T23:50:17.142Z,56.975177
2024-04-10T23:55:17.881Z,56.369718
